• Join FlightAware (Why Join?)
  • Login
  • US Flag 
01:28PM EDT


 

Airport Tracker/Info


-or-


 

Live Flight TrackerFlight Track Log ✈ SWA642 ✈ 21-Apr-2013 ✈ KTPA - KMSY

Flight Track Log - Related Links

Times and Time Zones

All times are in EDT time to prevent confusion due to time zone crossing. See the SWA642 flight status page for this flight to view local times or setup timezone preferences in your user account.

Time Position Orientation Groundspeed Altitude Reporting Facility
EDT Latitude Longitude Course Direction KTS MPH feet Rate Location/Type
10:28AM 28.0714 -82.5928 324° Northwest 142 163 8,000  Level Miami Center
10:29AM 28.0169 -82.6533 224° Southwest 176 203 11,100 1,980 Climbing Miami Center
10:30AM 27.9514 -82.7253 224° Southwest 258 297 12,000 420 Climbing Miami Center
10:31AM 27.8878 -82.7994 226° Southwest 307 353 12,000 900 Level Miami Center
10:32AM 27.8444 -82.8886 241° Southwest 324 373 13,900 2,580 Climbing Miami Center
10:33AM 27.8481 -83.0014 272° West 324 373 17,200 3,060 Climbing Miami Center
10:34AM 27.8511 -83.1214 272° West 360 414 20,100 3,060 Climbing Miami Center
10:35AM 27.8731 -83.2422 282° West 388 447 23,400 2,820 Climbing Miami Center
10:36AM 27.9092 -83.3639 289° West 394 453 25,800 2,700 Climbing Miami Center
10:39AM 28.0406 -83.7650 290° West 393 452 35,600 2,580 Climbing Jacksonville Center
10:40AM 28.0733 -83.8664 290° West 371 427 37,600 1,200 Climbing Jacksonville Center
10:41AM 28.1058 -83.9750 289° West 349 402 38,000 180 Climbing Jacksonville Center
10:42AM 28.1422 -84.0811 291° West 348 400 38,000  Level Jacksonville Center
10:43AM 28.1789 -84.1969 290° West 350 403 38,000  Level Jacksonville Center
10:44AM 28.2131 -84.3058 290° West 344 396 38,000  Level Jacksonville Center
10:45AM 28.2431 -84.4147 287° West 348 400 38,000  Level Jacksonville Center
10:46AM 28.2794 -84.5258 290° West 356 410 38,000  Level Jacksonville Center
10:47AM 28.3133 -84.6397 289° West 361 415 38,000  Level Jacksonville Center
10:48AM 28.3472 -84.7489 289° West 354 407 38,000 -240 Level Jacksonville Center
10:49AM 28.3811 -84.8556 290° West 349 402 37,600 -660 Descending Jacksonville Center
10:50AM 28.4172 -84.9578 292° West 356 410 36,700 -900 Descending Jacksonville Center
10:51AM 28.4486 -85.0669 288° West 356 410 35,900 -360 Descending Jacksonville Center
10:52AM 28.4803 -85.1739 289° West 361 415 36,000  Climbing Jacksonville Center
10:53AM 28.5139 -85.2786 290° West 361 415 36,000  Level Jacksonville Center
10:54AM 28.5453 -85.3858 288° West 356 410 36,000  Level Jacksonville Center
10:55AM 28.5767 -85.4881 289° West 351 404 36,000  Level Jacksonville Center
10:56AM 28.6078 -85.5953 288° West 351 404 36,000  Level Jacksonville Center
10:57AM 28.6411 -85.6981 290° West 351 404 36,000  Level Jacksonville Center
10:58AM 28.6739 -85.8100 288° West 357 411 36,000  Level Jacksonville Center
10:59AM 28.7069 -85.9200 289° West 357 411 36,000  Level Jacksonville Center
11:00AM 28.7397 -86.0250 290° West 357 411 36,000  Level Jacksonville Center
11:01AM 28.7706 -86.1325 288° West 362 417 36,000  Level Jacksonville Center
11:02AM 28.8014 -86.2378 289° West 367 422 36,000  Level Jacksonville Center
11:03AM 28.8339 -86.3456 289° West 367 422 36,000  Level Jacksonville Center
11:04AM 28.8664 -86.4533 289° West 367 422 36,000  Level Jacksonville Center
11:05AM 28.8911 -86.5397 288° West 367 422 36,000  Level Jacksonville Center
11:06AM 28.9292 -86.6667 289° West 367 422 36,000  Level Jacksonville Center
11:07AM 28.9572 -86.7722 287° West 367 422 36,000  Level Jacksonville Center
11:08AM 28.9914 -86.8850 289° West 367 422 36,000  Level Jacksonville Center
11:09AM 29.0236 -86.9908 289° West 367 422 36,000  Level Jacksonville Center
11:10AM 29.0536 -87.0964 288° West 367 422 36,000  Level Jacksonville Center
11:12AM 29.1139 -87.3128 288° West 357 411 36,000  Level Houston Center
11:13AM 29.1453 -87.4192 289° West 356 410 36,000  Level Houston Center
11:14AM 29.1750 -87.5242 288° West 350 403 36,000  Level Houston Center
11:15AM 29.2108 -87.6528 288° West 356 410 36,000  Level Houston Center
11:16AM 29.2414 -87.7586 288° West 352 405 36,000  Level Houston Center
11:17AM 29.2719 -87.8658 288° West 355 409 36,000  Level Houston Center
11:18AM 29.3019 -87.9767 287° West 354 407 36,000  Level Houston Center
11:19AM 29.3308 -88.0778 288° West 360 414 36,000  Level Houston Center
11:20AM 29.3594 -88.1831 287° West 350 403 36,000  Level Houston Center
11:21AM 29.3911 -88.2967 288° West 349 402 36,000  Level Houston Center
11:22AM 29.4181 -88.4178 284° West 353 406 36,000  Level Houston Center
11:24AM 29.4086 -88.5278 264° West 350 403 36,000  Level Houston Center
11:25AM 29.4400 -88.6333 289° West 353 406 36,000 -240 Level Houston Center
11:26AM 29.4714 -88.7389 289° West 354 407 35,600 -1,740 Descending Houston Center
11:27AM 29.5042 -88.8425 290° West 350 403 32,500 -2,640 Descending Houston Center
11:28AM 29.5364 -88.9486 289° West 351 404 30,200 -2,520 Descending Houston Center
11:29AM 29.5756 -89.0819 289° West 367 422 27,400 -2,340 Descending Houston Center
11:30AM 29.6069 -89.1875 289° West 356 410 25,100 -2,280 Descending Houston Center
11:30AM 29.6283 -89.2558 290° West 341 392 23,600 -2,580 Descending Houston Center
11:31AM 29.6372 -89.2856 289° West 338 389 22,900 -2,100 Descending Houston Center
11:31AM 29.6572 -89.3550 288° West 322 371 21,500 -2,640 Descending Houston Center
11:32AM 29.6658 -89.3842 289° West 328 377 20,200 -3,960 Descending Houston Center
11:33AM 29.6917 -89.4922 285° West 349 402 16,300 -3,660 Descending Houston Center
11:34AM 29.7194 -89.6056 286° West 359 413 12,700 -3,060 Descending Houston Center
11:35AM 29.7475 -89.7147 287° West 365 420 10,200 -1,560 Descending Houston Center
11:36AM 29.7719 -89.8164 286° West 285 328 9,800 -1,020 Descending Houston Center
11:37AM 29.7889 -89.8875 285° West 257 296 8,300 -1,800 Descending Houston Center
11:37AM 29.7961 -89.9119 289° West 274 315 7,700 -1,920 Descending Houston Center
11:38AM 29.8081 -89.9636 285° West 271 312 6,600 -1,800 Descending Houston Center
11:38AM 29.8164 -89.9964 286° West 273 314 5,900 -1,860 Descending Houston Center
11:39AM 29.8322 -90.0656 285° West 268 308 4,400 -1,860 Descending Houston Center
11:40AM 29.8489 -90.1294 287° West 264 304 2,900 -1,560 Descending Houston Center
11:40AM 29.8578 -90.1603 288° West 268 308 2,500 -840 Descending Houston Center
11:41AM 29.8806 -90.2097 298° West 256 295 2,100 -420 Descending Houston Center
11:41AM 29.8911 -90.2289 302° West 252 290 2,100 -300 Level Houston Center
11:42AM 29.9094 -90.2639 301° West 162 186 1,800 -780 Descending Houston Center
11:42AM 29.9219 -90.2711 333° Northwest 212 244 1,300 -1,020 Descending Houston Center
11:42AM 29.9367 -90.2675 12° North 125 144 1,000 -780 Descending Houston Center
11:43AM 29.9578 -90.2606 16° North 165 190 500 -840 Descending Houston Center
11:43AM 29.9719 -90.2564 14° North 126 145 200 -960 Descending Houston Center
11:45AM 29.9833 -90.2500 305° West  Level FlightAware Approximate
11:52AM 29.9934 -90.2580 305° West  Level Estimated